sensor_id;sensor_type;location;lat;lon;timestamp;pressure;altitude;pressure_sealevel;temperature;humidity
64644;BME280;51056;50.330;7.914;2023-04-29T00:02:29;100340.56;;;12.11;96.81
64644;BME280;51056;50.330;7.914;2023-04-29T00:05:33;100342.25;;;12.12;96.30
64644;BME280;51056;50.330;7.914;2023-04-29T00:08:35;100338.69;;;12.13;96.35
64644;BME280;51056;50.330;7.914;2023-04-29T00:11:38;100342.91;;;12.16;96.31
64644;BME280;51056;50.330;7.914;2023-04-29T00:14:42;100335.91;;;12.16;96.68
64644;BME280;51056;50.330;7.914;2023-04-29T00:17:45;100329.69;;;12.17;96.22
64644;BME280;51056;50.330;7.914;2023-04-29T00:20:48;100329.06;;;12.14;96.56
64644;BME280;51056;50.330;7.914;2023-04-29T00:23:52;100335.13;;;12.14;96.56
64644;BME280;51056;50.330;7.914;2023-04-29T00:26:55;100333.28;;;12.16;97.10
64644;BME280;51056;50.330;7.914;2023-04-29T00:29:58;100338.31;;;12.19;97.15
64644;BME280;51056;50.330;7.914;2023-04-29T00:33:01;100337.19;;;12.23;96.87
64644;BME280;51056;50.330;7.914;2023-04-29T00:36:06;100340.94;;;12.19;96.65
64644;BME280;51056;50.330;7.914;2023-04-29T00:39:09;100336.53;;;12.20;96.64
64644;BME280;51056;50.330;7.914;2023-04-29T00:42:13;100352.16;;;12.21;96.78
64644;BME280;51056;50.330;7.914;2023-04-29T00:45:15;100353.19;;;12.19;97.56
64644;BME280;51056;50.330;7.914;2023-04-29T00:48:19;100355.91;;;12.17;97.62
64644;BME280;51056;50.330;7.914;2023-04-29T00:51:21;100354.88;;;12.20;97.88
64644;BME280;51056;50.330;7.914;2023-04-29T00:54:24;100356.38;;;12.24;97.69
64644;BME280;51056;50.330;7.914;2023-04-29T00:57:28;100347.75;;;12.22;97.45
64644;BME280;51056;50.330;7.914;2023-04-29T01:00:32;100352.34;;;12.18;97.76
64644;BME280;51056;50.330;7.914;2023-04-29T01:03:35;100355.81;;;12.19;98.04
64644;BME280;51056;50.330;7.914;2023-04-29T01:10:04;100358.44;;;12.19;97.47
64644;BME280;51056;50.330;7.914;2023-04-29T01:19:38;100352.34;;;12.18;98.39
64644;BME280;51056;50.330;7.914;2023-04-29T01:22:47;100362.09;;;12.16;98.00
64644;BME280;51056;50.330;7.914;2023-04-29T01:25:51;100361.16;;;12.17;98.01
64644;BME280;51056;50.330;7.914;2023-04-29T01:29:10;100360.41;;;12.15;98.23
64644;BME280;51056;50.330;7.914;2023-04-29T01:32:23;100367.44;;;12.15;98.28
64644;BME280;51056;50.330;7.914;2023-04-29T01:45:19;100366.78;;;12.11;98.50
64644;BME280;51056;50.330;7.914;2023-04-29T01:48:24;100375.31;;;12.00;99.73
64644;BME280;51056;50.330;7.914;2023-04-29T01:51:27;100361.06;;;12.04;99.45
64644;BME280;51056;50.330;7.914;2023-04-29T01:54:31;100356.47;;;12.08;99.31
64644;BME280;51056;50.330;7.914;2023-04-29T01:57:38;100363.50;;;12.07;98.99
64644;BME280;51056;50.330;7.914;2023-04-29T02:00:59;100360.69;;;12.10;99.21
64644;BME280;51056;50.330;7.914;2023-04-29T02:07:35;100360.50;;;12.14;99.16
64644;BME280;51056;50.330;7.914;2023-04-29T02:10:38;100362.84;;;12.04;100.00
64644;BME280;51056;50.330;7.914;2023-04-29T02:13:52;100365.00;;;11.97;100.00
64644;BME280;51056;50.330;7.914;2023-04-29T02:16:57;100370.72;;;12.04;100.00
64644;BME280;51056;50.330;7.914;2023-04-29T02:20:00;100371.44;;;12.06;99.76
64644;BME280;51056;50.330;7.914;2023-04-29T02:23:03;100377.44;;;12.08;100.00
64644;BME280;51056;50.330;7.914;2023-04-29T02:26:06;100375.78;;;12.07;99.94
64644;BME280;51056;50.330;7.914;2023-04-29T02:29:11;100372.97;;;12.10;99.84
64644;BME280;51056;50.330;7.914;2023-04-29T02:32:14;100379.22;;;12.07;99.96
64644;BME280;51056;50.330;7.914;2023-04-29T02:35:17;100380.91;;;12.08;100.00
64644;BME280;51056;50.330;7.914;2023-04-29T02:38:20;100381.66;;;12.10;99.53
64644;BME280;51056;50.330;7.914;2023-04-29T02:41:23;100382.44;;;12.13;99.73
64644;BME280;51056;50.330;7.914;2023-04-29T02:44:27;100390.47;;;12.09;99.62
64644;BME280;51056;50.330;7.914;2023-04-29T02:47:31;100398.22;;;12.11;99.33
64644;BME280;51056;50.330;7.914;2023-04-29T02:50:52;100400.28;;;12.06;99.82
64644;BME280;51056;50.330;7.914;2023-04-29T02:54:18;100399.63;;;12.02;100.00
64644;BME280;51056;50.330;7.914;2023-04-29T02:57:21;100395.97;;;12.05;100.00
64644;BME280;51056;50.330;7.914;2023-04-29T03:00:24;100402.06;;;12.05;100.00
64644;BME280;51056;50.330;7.914;2023-04-29T03:03:27;100410.97;;;12.03;100.00
64644;BME280;51056;50.330;7.914;2023-04-29T03:06:30;100409.44;;;11.99;100.00
64644;BME280;51056;50.330;7.914;2023-04-29T03:09:33;100414.38;;;11.89;100.00
64644;BME280;51056;50.330;7.914;2023-04-29T03:12:36;100412.94;;;11.83;100.00
64644;BME280;51056;50.330;7.914;2023-04-29T03:15:41;100416.94;;;11.91;100.00
64644;BME280;51056;50.330;7.914;2023-04-29T03:18:44;100416.75;;;11.94;100.00
64644;BME280;51056;50.330;7.914;2023-04-29T03:21:47;100415.56;;;11.83;99.97
64644;BME280;51056;50.330;7.914;2023-04-29T03:24:50;100423.00;;;11.91;99.90
64644;BME280;51056;50.330;7.914;2023-04-29T03:27:54;100414.97;;;11.94;99.56
64644;BME280;51056;50.330;7.914;2023-04-29T03:30:57;100425.34;;;11.96;98.90
64644;BME280;51056;50.330;7.914;2023-04-29T03:34:01;100426.03;;;11.83;98.55
64644;BME280;51056;50.330;7.914;2023-04-29T03:37:04;100426.59;;;11.74;98.69
64644;BME280;51056;50.330;7.914;2023-04-29T03:40:07;100438.66;;;11.77;97.15
64644;BME280;51056;50.330;7.914;2023-04-29T03:43:11;100433.34;;;11.78;95.23
64644;BME280;51056;50.330;7.914;2023-04-29T03:46:15;100435.13;;;11.78;96.44
64644;BME280;51056;50.330;7.914;2023-04-29T03:49:18;100434.47;;;11.74;97.30
64644;BME280;51056;50.330;7.914;2023-04-29T03:52:21;100438.84;;;11.74;97.55
64644;BME280;51056;50.330;7.914;2023-04-29T03:55:26;100438.41;;;11.81;97.27
64644;BME280;51056;50.330;7.914;2023-04-29T03:58:30;100436.84;;;11.63;97.46
64644;BME280;51056;50.330;7.914;2023-04-29T04:01:33;100430.84;;;11.61;96.63
64644;BME280;51056;50.330;7.914;2023-04-29T04:04:39;100434.81;;;11.68;96.49
64644;BME280;51056;50.330;7.914;2023-04-29T04:07:43;100442.69;;;11.68;95.71
64644;BME280;51056;50.330;7.914;2023-04-29T04:11:12;100443.75;;;11.64;92.53
64644;BME280;51056;50.330;7.914;2023-04-29T04:14:24;100447.59;;;11.58;92.45
64644;BME280;51056;50.330;7.914;2023-04-29T04:17:40;100448.69;;;11.54;93.62
64644;BME280;51056;50.330;7.914;2023-04-29T04:20:43;100449.34;;;11.58;93.71
64644;BME280;51056;50.330;7.914;2023-04-29T04:23:46;100448.03;;;11.51;94.02
64644;BME280;51056;50.330;7.914;2023-04-29T04:26:55;100455.72;;;11.54;93.77
64644;BME280;51056;50.330;7.914;2023-04-29T04:30:03;100462.44;;;11.58;93.99
64644;BME280;51056;50.330;7.914;2023-04-29T04:33:08;100463.66;;;11.52;94.28
64644;BME280;51056;50.330;7.914;2023-04-29T04:36:14;100476.66;;;11.54;94.36
64644;BME280;51056;50.330;7.914;2023-04-29T04:39:17;100479.28;;;11.54;94.31
64644;BME280;51056;50.330;7.914;2023-04-29T04:42:22;100481.06;;;11.53;93.67
64644;BME280;51056;50.330;7.914;2023-04-29T04:49:44;100488.66;;;11.42;94.90
64644;BME280;51056;50.330;7.914;2023-04-29T04:53:13;100498.13;;;11.29;94.75
64644;BME280;51056;50.330;7.914;2023-04-29T04:56:20;100503.88;;;11.35;93.93
64644;BME280;51056;50.330;7.914;2023-04-29T04:59:23;100509.69;;;11.40;93.21
64644;BME280;51056;50.330;7.914;2023-04-29T05:02:26;100511.81;;;11.34;92.63
64644;BME280;51056;50.330;7.914;2023-04-29T05:05:32;100517.22;;;11.31;92.79
64644;BME280;51056;50.330;7.914;2023-04-29T05:08:35;100521.63;;;11.30;91.97
64644;BME280;51056;50.330;7.914;2023-04-29T05:11:40;100523.81;;;11.38;91.66
64644;BME280;51056;50.330;7.914;2023-04-29T05:14:51;100522.97;;;11.37;91.47
64644;BME280;51056;50.330;7.914;2023-04-29T05:17:54;100531.25;;;11.14;90.45
64644;BME280;51056;50.330;7.914;2023-04-29T05:20:57;100534.44;;;11.19;91.17
64644;BME280;51056;50.330;7.914;2023-04-29T05:24:02;100542.22;;;11.21;91.16
64644;BME280;51056;50.330;7.914;2023-04-29T05:27:05;100535.97;;;11.23;91.27
64644;BME280;51056;50.330;7.914;2023-04-29T05:30:33;100541.97;;;11.25;89.29
64644;BME280;51056;50.330;7.914;2023-04-29T05:33:37;100541.03;;;11.26;87.93
64644;BME280;51056;50.330;7.914;2023-04-29T05:36:40;100544.75;;;11.22;88.57
64644;BME280;51056;50.330;7.914;2023-04-29T05:39:45;100546.63;;;11.36;89.17
64644;BME280;51056;50.330;7.914;2023-04-29T05:43:02;100541.72;;;11.46;88.44
64644;BME280;51056;50.330;7.914;2023-04-29T05:46:40;100558.69;;;11.38;88.41
64644;BME280;51056;50.330;7.914;2023-04-29T05:49:53;100565.19;;;11.47;89.39
64644;BME280;51056;50.330;7.914;2023-04-29T05:53:09;100565.84;;;11.51;89.92
64644;BME280;51056;50.330;7.914;2023-04-29T05:56:32;100564.19;;;11.50;90.55
64644;BME280;51056;50.330;7.914;2023-04-29T06:08:16;100575.41;;;11.20;87.38
64644;BME280;51056;50.330;7.914;2023-04-29T06:11:40;100588.34;;;11.23;85.51
64644;BME280;51056;50.330;7.914;2023-04-29T06:14:44;100591.97;;;11.36;84.88
64644;BME280;51056;50.330;7.914;2023-04-29T06:17:46;100589.59;;;11.48;84.56
64644;BME280;51056;50.330;7.914;2023-04-29T06:20:50;100597.63;;;11.45;85.63
64644;BME280;51056;50.330;7.914;2023-04-29T06:23:54;100600.56;;;11.38;87.43
64644;BME280;51056;50.330;7.914;2023-04-29T06:26:58;100600.41;;;11.41;85.01
64644;BME280;51056;50.330;7.914;2023-04-29T06:30:02;100594.25;;;11.43;86.90
64644;BME280;51056;50.330;7.914;2023-04-29T06:33:06;100605.56;;;11.59;86.60
64644;BME280;51056;50.330;7.914;2023-04-29T06:36:10;100602.09;;;11.74;86.99
64644;BME280;51056;50.330;7.914;2023-04-29T06:40:06;100615.53;;;11.68;81.70
64644;BME280;51056;50.330;7.914;2023-04-29T06:43:29;100620.06;;;11.80;82.66
64644;BME280;51056;50.330;7.914;2023-04-29T06:46:51;100622.47;;;11.69;81.24
64644;BME280;51056;50.330;7.914;2023-04-29T06:50:17;100623.06;;;11.74;82.65
64644;BME280;51056;50.330;7.914;2023-04-29T06:53:21;100628.13;;;11.77;84.06
64644;BME280;51056;50.330;7.914;2023-04-29T06:56:24;100631.25;;;11.84;84.20
64644;BME280;51056;50.330;7.914;2023-04-29T06:59:27;100635.63;;;11.83;82.55
64644;BME280;51056;50.330;7.914;2023-04-29T07:02:31;100634.38;;;11.75;82.24
64644;BME280;51056;50.330;7.914;2023-04-29T07:05:34;100640.00;;;11.84;82.68
64644;BME280;51056;50.330;7.914;2023-04-29T07:08:41;100642.06;;;11.78;81.85
64644;BME280;51056;50.330;7.914;2023-04-29T07:11:44;100647.47;;;11.75;82.28
64644;BME280;51056;50.330;7.914;2023-04-29T07:14:47;100653.22;;;11.81;83.30
64644;BME280;51056;50.330;7.914;2023-04-29T07:17:50;100649.25;;;11.74;83.06
64644;BME280;51056;50.330;7.914;2023-04-29T07:20:53;100662.19;;;11.77;84.44
64644;BME280;51056;50.330;7.914;2023-04-29T07:23:57;100667.50;;;11.76;84.44
64644;BME280;51056;50.330;7.914;2023-04-29T07:27:02;100669.78;;;11.66;84.14
64644;BME280;51056;50.330;7.914;2023-04-29T07:30:06;100670.09;;;11.60;83.95
64644;BME280;51056;50.330;7.914;2023-04-29T07:33:10;100682.28;;;11.77;84.75
64644;BME280;51056;50.330;7.914;2023-04-29T07:36:17;100684.19;;;11.91;84.09
64644;BME280;51056;50.330;7.914;2023-04-29T07:39:21;100673.75;;;11.73;81.09
64644;BME280;51056;50.330;7.914;2023-04-29T07:42:29;100686.31;;;12.00;82.26
64644;BME280;51056;50.330;7.914;2023-04-29T07:45:35;100691.09;;;12.07;81.40
64644;BME280;51056;50.330;7.914;2023-04-29T07:48:38;100682.66;;;12.02;79.82
64644;BME280;51056;50.330;7.914;2023-04-29T07:51:42;100693.13;;;12.02;81.62
64644;BME280;51056;50.330;7.914;2023-04-29T07:54:50;100692.28;;;12.18;80.70
64644;BME280;51056;50.330;7.914;2023-04-29T07:57:53;100685.00;;;12.39;80.17
64644;BME280;51056;50.330;7.914;2023-04-29T08:00:56;100690.06;;;12.42;77.49
64644;BME280;51056;50.330;7.914;2023-04-29T08:04:00;100686.16;;;12.33;77.73
64644;BME280;51056;50.330;7.914;2023-04-29T08:07:03;100699.34;;;12.31;75.63
64644;BME280;51056;50.330;7.914;2023-04-29T08:10:07;100700.25;;;12.16;76.02
64644;BME280;51056;50.330;7.914;2023-04-29T08:13:13;100705.50;;;12.16;76.10
64644;BME280;51056;50.330;7.914;2023-04-29T08:16:17;100713.56;;;12.27;77.48
64644;BME280;51056;50.330;7.914;2023-04-29T08:19:20;100721.75;;;12.37;76.55
64644;BME280;51056;50.330;7.914;2023-04-29T08:26:10;100733.03;;;11.92;76.63
64644;BME280;51056;50.330;7.914;2023-04-29T08:29:14;100742.59;;;12.08;77.55
64644;BME280;51056;50.330;7.914;2023-04-29T08:32:17;100752.34;;;12.22;76.96
64644;BME280;51056;50.330;7.914;2023-04-29T08:35:20;100747.09;;;12.22;76.70
64644;BME280;51056;50.330;7.914;2023-04-29T08:38:23;100755.88;;;12.21;76.98
64644;BME280;51056;50.330;7.914;2023-04-29T08:41:27;100755.13;;;12.03;76.24
64644;BME280;51056;50.330;7.914;2023-04-29T08:44:30;100761.69;;;11.95;76.56
64644;BME280;51056;50.330;7.914;2023-04-29T08:47:34;100763.66;;;12.07;76.80
64644;BME280;51056;50.330;7.914;2023-04-29T08:50:39;100761.09;;;12.21;76.52
64644;BME280;51056;50.330;7.914;2023-04-29T08:53:42;100753.34;;;12.36;74.85
64644;BME280;51056;50.330;7.914;2023-04-29T08:56:46;100761.78;;;12.41;74.61
64644;BME280;51056;50.330;7.914;2023-04-29T08:59:49;100762.53;;;12.43;74.46
64644;BME280;51056;50.330;7.914;2023-04-29T09:02:53;100765.75;;;12.48;75.03
64644;BME280;51056;50.330;7.914;2023-04-29T09:05:58;100768.38;;;12.48;74.77
64644;BME280;51056;50.330;7.914;2023-04-29T09:09:02;100771.22;;;12.59;75.34
64644;BME280;51056;50.330;7.914;2023-04-29T09:12:05;100770.13;;;12.47;73.02
64644;BME280;51056;50.330;7.914;2023-04-29T09:15:09;100777.16;;;12.47;73.78
64644;BME280;51056;50.330;7.914;2023-04-29T09:18:37;100778.19;;;12.44;73.15
64644;BME280;51056;50.330;7.914;2023-04-29T09:21:36;100778.09;;;12.46;74.63
64644;BME280;51056;50.330;7.914;2023-04-29T09:24:38;100788.31;;;12.50;73.43
64644;BME280;51056;50.330;7.914;2023-04-29T09:27:41;100792.03;;;12.62;73.55
64644;BME280;51056;50.330;7.914;2023-04-29T09:30:45;100797.63;;;12.56;73.90
64644;BME280;51056;50.330;7.914;2023-04-29T09:36:52;100802.06;;;12.40;72.45
64644;BME280;51056;50.330;7.914;2023-04-29T09:40:00;100797.22;;;12.00;72.92
64644;BME280;51056;50.330;7.914;2023-04-29T09:43:04;100805.69;;;12.21;73.90
64644;BME280;51056;50.330;7.914;2023-04-29T09:46:13;100810.50;;;12.29;72.73
64644;BME280;51056;50.330;7.914;2023-04-29T09:49:22;100808.31;;;12.53;73.33
64644;BME280;51056;50.330;7.914;2023-04-29T09:52:28;100807.78;;;12.62;72.26
64644;BME280;51056;50.330;7.914;2023-04-29T09:56:00;100810.84;;;12.70;72.40
64644;BME280;51056;50.330;7.914;2023-04-29T09:59:07;100816.31;;;12.82;72.62
64644;BME280;51056;50.330;7.914;2023-04-29T10:02:17;100811.66;;;12.87;72.29
64644;BME280;51056;50.330;7.914;2023-04-29T10:05:20;100829.44;;;12.82;73.04
64644;BME280;51056;50.330;7.914;2023-04-29T10:08:25;100815.97;;;12.72;73.05
64644;BME280;51056;50.330;7.914;2023-04-29T10:11:29;100822.00;;;12.58;72.20
64644;BME280;51056;50.330;7.914;2023-04-29T10:14:38;100811.25;;;12.47;74.29
64644;BME280;51056;50.330;7.914;2023-04-29T10:17:51;100817.75;;;12.71;74.22
64644;BME280;51056;50.330;7.914;2023-04-29T10:20:56;100813.22;;;13.05;72.40
64644;BME280;51056;50.330;7.914;2023-04-29T10:24:01;100812.97;;;12.94;71.49
64644;BME280;51056;50.330;7.914;2023-04-29T10:27:08;100815.75;;;12.76;70.49
64644;BME280;51056;50.330;7.914;2023-04-29T10:30:14;100816.91;;;12.87;72.02
64644;BME280;51056;50.330;7.914;2023-04-29T10:33:18;100812.31;;;12.90;71.92
64644;BME280;51056;50.330;7.914;2023-04-29T10:36:21;100821.44;;;12.99;71.29
64644;BME280;51056;50.330;7.914;2023-04-29T10:39:36;100828.28;;;13.01;69.96
64644;BME280;51056;50.330;7.914;2023-04-29T10:45:45;100818.03;;;13.13;68.90
64644;BME280;51056;50.330;7.914;2023-04-29T10:48:49;100823.25;;;13.43;68.36
64644;BME280;51056;50.330;7.914;2023-04-29T10:51:59;100819.47;;;13.77;68.72
64644;BME280;51056;50.330;7.914;2023-04-29T10:55:05;100821.06;;;13.94;68.13
64644;BME280;51056;50.330;7.914;2023-04-29T10:58:42;100824.25;;;13.70;67.02
64644;BME280;51056;50.330;7.914;2023-04-29T11:01:39;100824.63;;;13.50;66.73
64644;BME280;51056;50.330;7.914;2023-04-29T11:08:11;100812.00;;;13.11;68.02
64644;BME280;51056;50.330;7.914;2023-04-29T11:11:16;100815.88;;;12.89;68.48
64644;BME280;51056;50.330;7.914;2023-04-29T11:18:04;100820.81;;;13.25;69.12
64644;BME280;51056;50.330;7.914;2023-04-29T11:21:13;100818.38;;;13.37;67.58
64644;BME280;51056;50.330;7.914;2023-04-29T11:24:16;100817.81;;;13.32;68.84
64644;BME280;51056;50.330;7.914;2023-04-29T11:27:19;100819.81;;;13.42;67.69
64644;BME280;51056;50.330;7.914;2023-04-29T11:30:25;100830.13;;;13.45;68.85
64644;BME280;51056;50.330;7.914;2023-04-29T11:33:31;100831.25;;;13.56;68.11
64644;BME280;51056;50.330;7.914;2023-04-29T11:36:34;100837.75;;;13.50;68.70
64644;BME280;51056;50.330;7.914;2023-04-29T11:39:38;100832.97;;;13.71;68.42
64644;BME280;51056;50.330;7.914;2023-04-29T11:42:45;100837.69;;;13.80;66.66
64644;BME280;51056;50.330;7.914;2023-04-29T11:45:52;100830.09;;;13.76;66.22
64644;BME280;51056;50.330;7.914;2023-04-29T11:48:59;100832.72;;;13.76;66.16
64644;BME280;51056;50.330;7.914;2023-04-29T11:52:03;100841.19;;;13.20;67.31
64644;BME280;51056;50.330;7.914;2023-04-29T11:55:10;100842.13;;;13.35;69.67
64644;BME280;51056;50.330;7.914;2023-04-29T11:58:14;100847.72;;;13.59;66.95
64644;BME280;51056;50.330;7.914;2023-04-29T12:01:18;100841.03;;;13.68;66.96
64644;BME280;51056;50.330;7.914;2023-04-29T12:04:22;100855.50;;;13.75;67.05
64644;BME280;51056;50.330;7.914;2023-04-29T12:07:25;100848.44;;;13.61;66.99
64644;BME280;51056;50.330;7.914;2023-04-29T12:10:28;100850.34;;;13.59;67.90
64644;BME280;51056;50.330;7.914;2023-04-29T12:13:33;100846.66;;;13.47;66.70
64644;BME280;51056;50.330;7.914;2023-04-29T12:16:38;100851.47;;;13.25;68.76
64644;BME280;51056;50.330;7.914;2023-04-29T12:19:41;100846.28;;;13.54;70.41
64644;BME280;51056;50.330;7.914;2023-04-29T12:22:45;100848.78;;;13.85;69.47
64644;BME280;51056;50.330;7.914;2023-04-29T12:25:52;100856.19;;;13.93;66.84
64644;BME280;51056;50.330;7.914;2023-04-29T12:28:57;100859.00;;;13.76;68.14
64644;BME280;51056;50.330;7.914;2023-04-29T12:32:00;100858.41;;;13.70;69.20
64644;BME280;51056;50.330;7.914;2023-04-29T12:35:04;100852.78;;;13.91;69.53
64644;BME280;51056;50.330;7.914;2023-04-29T12:38:08;100852.22;;;14.14;68.77
64644;BME280;51056;50.330;7.914;2023-04-29T12:41:12;100856.16;;;14.22;65.78
64644;BME280;51056;50.330;7.914;2023-04-29T12:48:30;100858.34;;;13.86;65.67
64644;BME280;51056;50.330;7.914;2023-04-29T12:51:35;100856.47;;;13.88;66.31
64644;BME280;51056;50.330;7.914;2023-04-29T12:54:41;100868.19;;;13.97;66.22
64644;BME280;51056;50.330;7.914;2023-04-29T12:57:45;100859.28;;;14.00;66.34
64644;BME280;51056;50.330;7.914;2023-04-29T13:00:49;100862.09;;;13.96;65.83
64644;BME280;51056;50.330;7.914;2023-04-29T13:03:52;100861.81;;;14.30;65.94
64644;BME280;51056;50.330;7.914;2023-04-29T13:06:56;100860.19;;;14.56;63.62
64644;BME280;51056;50.330;7.914;2023-04-29T13:10:02;100858.34;;;14.71;63.96
64644;BME280;51056;50.330;7.914;2023-04-29T13:13:08;100864.44;;;14.30;64.60
64644;BME280;51056;50.330;7.914;2023-04-29T13:16:13;100871.03;;;14.08;66.19
64644;BME280;51056;50.330;7.914;2023-04-29T13:19:17;100868.00;;;14.14;66.68
64644;BME280;51056;50.330;7.914;2023-04-29T13:22:20;100875.53;;;13.92;67.23
64644;BME280;51056;50.330;7.914;2023-04-29T13:25:27;100882.09;;;13.99;66.41
64644;BME280;51056;50.330;7.914;2023-04-29T13:28:33;100882.84;;;13.87;66.65
64644;BME280;51056;50.330;7.914;2023-04-29T13:31:36;100882.66;;;13.90;66.78
64644;BME280;51056;50.330;7.914;2023-04-29T13:34:39;100873.28;;;14.14;66.65
64644;BME280;51056;50.330;7.914;2023-04-29T13:37:45;100889.97;;;13.85;66.90
64644;BME280;51056;50.330;7.914;2023-04-29T13:40:50;100888.75;;;13.46;68.35
64644;BME280;51056;50.330;7.914;2023-04-29T13:43:53;100894.94;;;13.15;69.46
64644;BME280;51056;50.330;7.914;2023-04-29T13:46:56;100899.44;;;12.97;70.07
64644;BME280;51056;50.330;7.914;2023-04-29T13:49:59;100904.56;;;12.98;70.45
64644;BME280;51056;50.330;7.914;2023-04-29T13:53:02;100908.63;;;13.20;70.75
64644;BME280;51056;50.330;7.914;2023-04-29T13:56:05;100903.16;;;13.24;71.01
64644;BME280;51056;50.330;7.914;2023-04-29T13:59:09;100900.34;;;13.28;71.09
64644;BME280;51056;50.330;7.914;2023-04-29T14:02:13;100902.22;;;13.25;70.94
64644;BME280;51056;50.330;7.914;2023-04-29T14:05:16;100909.06;;;13.12;70.47
64644;BME280;51056;50.330;7.914;2023-04-29T14:08:19;100906.34;;;12.98;70.65
64644;BME280;51056;50.330;7.914;2023-04-29T14:11:22;100918.97;;;12.91;71.69
64644;BME280;51056;50.330;7.914;2023-04-29T14:14:26;100925.50;;;12.68;72.56
64644;BME280;51056;50.330;7.914;2023-04-29T14:17:29;100920.44;;;12.65;72.86
64644;BME280;51056;50.330;7.914;2023-04-29T14:20:31;100921.19;;;12.67;72.56
64644;BME280;51056;50.330;7.914;2023-04-29T14:23:34;100910.38;;;12.73;73.13
64644;BME280;51056;50.330;7.914;2023-04-29T14:26:38;100916.19;;;12.78;73.58
64644;BME280;51056;50.330;7.914;2023-04-29T14:29:40;100922.38;;;12.77;73.03
64644;BME280;51056;50.330;7.914;2023-04-29T14:32:43;100923.22;;;12.94;73.04
64644;BME280;51056;50.330;7.914;2023-04-29T14:35:47;100917.53;;;13.01;71.34
64644;BME280;51056;50.330;7.914;2023-04-29T14:38:52;100918.47;;;13.16;71.75
64644;BME280;51056;50.330;7.914;2023-04-29T14:41:55;100921.69;;;13.21;71.25
64644;BME280;51056;50.330;7.914;2023-04-29T14:44:59;100919.56;;;13.12;70.93
64644;BME280;51056;50.330;7.914;2023-04-29T14:48:01;100932.72;;;12.96;71.60
64644;BME280;51056;50.330;7.914;2023-04-29T14:51:06;100939.97;;;13.07;70.96
64644;BME280;51056;50.330;7.914;2023-04-29T14:54:10;100944.38;;;12.91;71.26
64644;BME280;51056;50.330;7.914;2023-04-29T14:57:16;100941.88;;;12.89;71.36
64644;BME280;51056;50.330;7.914;2023-04-29T15:00:19;100950.41;;;12.93;71.81
64644;BME280;51056;50.330;7.914;2023-04-29T15:03:25;100951.59;;;13.03;71.46
64644;BME280;51056;50.330;7.914;2023-04-29T15:06:36;100961.25;;;13.02;71.68
64644;BME280;51056;50.330;7.914;2023-04-29T15:09:39;100963.03;;;13.02;71.76
64644;BME280;51056;50.330;7.914;2023-04-29T15:12:43;100961.66;;;12.95;71.46
64644;BME280;51056;50.330;7.914;2023-04-29T15:15:46;100962.59;;;12.94;72.32
64644;BME280;51056;50.330;7.914;2023-04-29T15:18:49;100964.38;;;12.93;72.34
64644;BME280;51056;50.330;7.914;2023-04-29T15:21:52;100974.03;;;12.93;71.93
64644;BME280;51056;50.330;7.914;2023-04-29T15:24:55;100968.09;;;12.73;71.92
64644;BME280;51056;50.330;7.914;2023-04-29T15:27:58;100974.09;;;12.75;73.00
64644;BME280;51056;50.330;7.914;2023-04-29T15:31:02;100967.84;;;12.94;73.01
64644;BME280;51056;50.330;7.914;2023-04-29T15:34:08;100967.41;;;13.17;72.91
64644;BME280;51056;50.330;7.914;2023-04-29T15:37:12;100968.00;;;13.07;70.82
64644;BME280;51056;50.330;7.914;2023-04-29T15:40:14;100968.94;;;12.90;71.92
64644;BME280;51056;50.330;7.914;2023-04-29T15:43:20;100976.22;;;12.85;72.41
64644;BME280;51056;50.330;7.914;2023-04-29T15:46:23;100968.84;;;12.91;72.83
64644;BME280;51056;50.330;7.914;2023-04-29T15:49:26;100981.91;;;12.93;71.87
64644;BME280;51056;50.330;7.914;2023-04-29T15:52:30;100974.03;;;12.93;72.57
64644;BME280;51056;50.330;7.914;2023-04-29T15:55:33;100975.81;;;12.92;72.87
64644;BME280;51056;50.330;7.914;2023-04-29T15:58:37;100975.88;;;12.91;71.65
64644;BME280;51056;50.330;7.914;2023-04-29T16:01:40;100984.50;;;12.77;71.82
64644;BME280;51056;50.330;7.914;2023-04-29T16:04:43;100984.34;;;12.64;72.10
64644;BME280;51056;50.330;7.914;2023-04-29T16:07:47;100988.91;;;12.61;72.81
64644;BME280;51056;50.330;7.914;2023-04-29T16:10:50;100984.66;;;12.58;72.87
64644;BME280;51056;50.330;7.914;2023-04-29T16:13:53;100987.19;;;12.60;73.14
64644;BME280;51056;50.330;7.914;2023-04-29T16:16:56;100982.78;;;12.60;72.92
64644;BME280;51056;50.330;7.914;2023-04-29T16:19:59;100979.94;;;12.65;72.68
64644;BME280;51056;50.330;7.914;2023-04-29T16:23:03;100981.44;;;12.69;72.66
64644;BME280;51056;50.330;7.914;2023-04-29T16:26:06;100981.63;;;12.82;73.34
64644;BME280;51056;50.330;7.914;2023-04-29T16:29:09;100985.28;;;12.95;73.03
64644;BME280;51056;50.330;7.914;2023-04-29T16:32:14;100985.53;;;13.06;72.29
64644;BME280;51056;50.330;7.914;2023-04-29T16:35:17;100981.13;;;12.91;71.22
64644;BME280;51056;50.330;7.914;2023-04-29T16:38:22;100986.31;;;12.76;71.97
64644;BME280;51056;50.330;7.914;2023-04-29T16:41:25;100981.13;;;12.75;72.47
64644;BME280;51056;50.330;7.914;2023-04-29T16:44:29;100983.50;;;12.79;72.39
64644;BME280;51056;50.330;7.914;2023-04-29T16:47:32;100975.19;;;12.71;72.35
64644;BME280;51056;50.330;7.914;2023-04-29T16:50:37;100981.97;;;12.75;73.12
64644;BME280;51056;50.330;7.914;2023-04-29T16:53:40;100979.69;;;12.85;73.02
64644;BME280;51056;50.330;7.914;2023-04-29T16:56:43;100981.13;;;12.91;73.28
64644;BME280;51056;50.330;7.914;2023-04-29T16:59:46;100984.94;;;13.01;72.57
64644;BME280;51056;50.330;7.914;2023-04-29T17:02:49;100988.22;;;12.89;72.80
64644;BME280;51056;50.330;7.914;2023-04-29T17:05:52;100989.28;;;12.86;73.14
64644;BME280;51056;50.330;7.914;2023-04-29T17:08:56;101000.13;;;12.96;73.11